sensor_id;sensor_type;location;lat;lon;timestamp;temperature;humidity
8896;DHT22;4484;48.928;10.066;2022-07-10T00:01:03;15.50;99.90
8896;DHT22;4484;48.928;10.066;2022-07-10T00:03:29;15.40;99.90
8896;DHT22;4484;48.928;10.066;2022-07-10T00:05:56;15.30;99.90
8896;DHT22;4484;48.928;10.066;2022-07-10T00:08:23;15.30;99.90
8896;DHT22;4484;48.928;10.066;2022-07-10T00:10:51;15.30;99.90
8896;DHT22;4484;48.928;10.066;2022-07-10T00:13:17;15.20;99.90
8896;DHT22;4484;48.928;10.066;2022-07-10T00:15:44;15.10;99.90
8896;DHT22;4484;48.928;10.066;2022-07-10T00:18:11;15.00;99.90
8896;DHT22;4484;48.928;10.066;2022-07-10T00:20:38;15.00;99.90
8896;DHT22;4484;48.928;10.066;2022-07-10T00:23:05;14.90;99.90
8896;DHT22;4484;48.928;10.066;2022-07-10T00:25:32;14.80;99.90
8896;DHT22;4484;48.928;10.066;2022-07-10T00:27:59;14.70;99.90
8896;DHT22;4484;48.928;10.066;2022-07-10T00:30:27;14.60;99.90
8896;DHT22;4484;48.928;10.066;2022-07-10T00:32:54;14.60;99.90
8896;DHT22;4484;48.928;10.066;2022-07-10T00:35:21;14.50;99.90
8896;DHT22;4484;48.928;10.066;2022-07-10T00:37:48;14.40;99.90
8896;DHT22;4484;48.928;10.066;2022-07-10T00:40:15;14.40;99.90
8896;DHT22;4484;48.928;10.066;2022-07-10T00:42:43;14.30;99.90
8896;DHT22;4484;48.928;10.066;2022-07-10T00:45:10;14.20;99.90
8896;DHT22;4484;48.928;10.066;2022-07-10T00:47:38;14.20;99.90
8896;DHT22;4484;48.928;10.066;2022-07-10T00:50:06;14.10;99.90
8896;DHT22;4484;48.928;10.066;2022-07-10T00:52:35;14.00;99.90
8896;DHT22;4484;48.928;10.066;2022-07-10T00:55:06;14.00;99.90
8896;DHT22;4484;48.928;10.066;2022-07-10T00:57:35;13.90;99.90
8896;DHT22;4484;48.928;10.066;2022-07-10T01:00:03;13.90;99.90
8896;DHT22;4484;48.928;10.066;2022-07-10T01:02:31;13.80;99.90
8896;DHT22;4484;48.928;10.066;2022-07-10T01:04:58;13.80;99.90
8896;DHT22;4484;48.928;10.066;2022-07-10T01:07:25;13.80;99.90
8896;DHT22;4484;48.928;10.066;2022-07-10T01:09:52;13.70;99.90
8896;DHT22;4484;48.928;10.066;2022-07-10T01:12:20;13.70;99.90
8896;DHT22;4484;48.928;10.066;2022-07-10T01:14:47;13.70;99.90
8896;DHT22;4484;48.928;10.066;2022-07-10T01:17:15;13.70;99.90
8896;DHT22;4484;48.928;10.066;2022-07-10T01:19:42;13.60;99.90
8896;DHT22;4484;48.928;10.066;2022-07-10T01:22:09;13.50;99.90
8896;DHT22;4484;48.928;10.066;2022-07-10T01:24:36;13.50;99.90
8896;DHT22;4484;48.928;10.066;2022-07-10T01:27:03;13.40;99.90
8896;DHT22;4484;48.928;10.066;2022-07-10T01:29:30;13.40;99.90
8896;DHT22;4484;48.928;10.066;2022-07-10T01:31:57;13.30;99.90
8896;DHT22;4484;48.928;10.066;2022-07-10T01:34:27;13.30;99.90
8896;DHT22;4484;48.928;10.066;2022-07-10T01:36:54;13.30;99.90
8896;DHT22;4484;48.928;10.066;2022-07-10T01:39:21;13.40;99.90
8896;DHT22;4484;48.928;10.066;2022-07-10T01:41:48;13.40;99.90
8896;DHT22;4484;48.928;10.066;2022-07-10T01:44:15;13.40;99.90
8896;DHT22;4484;48.928;10.066;2022-07-10T01:46:47;13.40;99.90
8896;DHT22;4484;48.928;10.066;2022-07-10T01:49:29;13.40;99.90
8896;DHT22;4484;48.928;10.066;2022-07-10T01:52:00;13.40;99.90
8896;DHT22;4484;48.928;10.066;2022-07-10T01:54:27;13.40;99.90
8896;DHT22;4484;48.928;10.066;2022-07-10T01:56:54;13.40;99.90
8896;DHT22;4484;48.928;10.066;2022-07-10T01:59:21;13.40;99.90
8896;DHT22;4484;48.928;10.066;2022-07-10T02:01:49;13.40;99.90
8896;DHT22;4484;48.928;10.066;2022-07-10T02:04:16;13.40;99.90
8896;DHT22;4484;48.928;10.066;2022-07-10T02:07:02;13.40;99.90
8896;DHT22;4484;48.928;10.066;2022-07-10T02:09:29;13.40;99.90
8896;DHT22;4484;48.928;10.066;2022-07-10T02:11:56;13.40;99.90
8896;DHT22;4484;48.928;10.066;2022-07-10T02:14:23;13.40;99.90
8896;DHT22;4484;48.928;10.066;2022-07-10T02:16:50;13.50;99.90
8896;DHT22;4484;48.928;10.066;2022-07-10T02:19:17;13.50;99.90
8896;DHT22;4484;48.928;10.066;2022-07-10T02:21:44;13.50;99.90
8896;DHT22;4484;48.928;10.066;2022-07-10T02:24:12;13.50;99.90
8896;DHT22;4484;48.928;10.066;2022-07-10T02:26:39;13.50;99.90
8896;DHT22;4484;48.928;10.066;2022-07-10T02:29:06;13.50;99.90
8896;DHT22;4484;48.928;10.066;2022-07-10T02:31:34;13.50;99.90
8896;DHT22;4484;48.928;10.066;2022-07-10T02:34:07;13.50;99.90
8896;DHT22;4484;48.928;10.066;2022-07-10T02:36:35;13.60;99.90
8896;DHT22;4484;48.928;10.066;2022-07-10T02:39:03;13.50;99.90
8896;DHT22;4484;48.928;10.066;2022-07-10T02:41:30;13.60;99.90
8896;DHT22;4484;48.928;10.066;2022-07-10T02:43:57;13.60;99.90
8896;DHT22;4484;48.928;10.066;2022-07-10T02:46:24;13.60;99.90
8896;DHT22;4484;48.928;10.066;2022-07-10T02:48:51;13.60;99.90
8896;DHT22;4484;48.928;10.066;2022-07-10T02:51:17;13.60;99.90
8896;DHT22;4484;48.928;10.066;2022-07-10T02:53:44;13.60;99.90
8896;DHT22;4484;48.928;10.066;2022-07-10T02:56:11;13.60;99.90
8896;DHT22;4484;48.928;10.066;2022-07-10T02:58:38;13.50;99.90
8896;DHT22;4484;48.928;10.066;2022-07-10T03:01:06;13.50;99.90
8896;DHT22;4484;48.928;10.066;2022-07-10T03:03:34;13.40;99.90
8896;DHT22;4484;48.928;10.066;2022-07-10T03:06:02;13.40;99.90
8896;DHT22;4484;48.928;10.066;2022-07-10T03:08:29;13.40;99.90
8896;DHT22;4484;48.928;10.066;2022-07-10T03:10:57;13.40;99.90
8896;DHT22;4484;48.928;10.066;2022-07-10T03:13:25;13.40;99.90
8896;DHT22;4484;48.928;10.066;2022-07-10T03:15:54;13.40;99.90
8896;DHT22;4484;48.928;10.066;2022-07-10T03:18:21;13.30;99.90
8896;DHT22;4484;48.928;10.066;2022-07-10T03:20:49;13.40;99.90
8896;DHT22;4484;48.928;10.066;2022-07-10T03:23:16;13.30;99.90
8896;DHT22;4484;48.928;10.066;2022-07-10T03:25:43;13.30;99.90
8896;DHT22;4484;48.928;10.066;2022-07-10T03:28:10;13.20;99.90
8896;DHT22;4484;48.928;10.066;2022-07-10T03:30:37;13.20;99.90
8896;DHT22;4484;48.928;10.066;2022-07-10T03:33:04;13.10;99.90
8896;DHT22;4484;48.928;10.066;2022-07-10T03:35:31;13.00;99.90
8896;DHT22;4484;48.928;10.066;2022-07-10T03:37:58;13.00;99.90
8896;DHT22;4484;48.928;10.066;2022-07-10T03:40:25;12.90;99.90
8896;DHT22;4484;48.928;10.066;2022-07-10T03:42:53;12.90;99.90
8896;DHT22;4484;48.928;10.066;2022-07-10T03:45:20;12.90;99.90
8896;DHT22;4484;48.928;10.066;2022-07-10T03:47:47;12.80;99.90
8896;DHT22;4484;48.928;10.066;2022-07-10T03:50:13;12.90;99.90
8896;DHT22;4484;48.928;10.066;2022-07-10T03:52:40;12.90;99.90
8896;DHT22;4484;48.928;10.066;2022-07-10T03:55:08;12.90;99.90
8896;DHT22;4484;48.928;10.066;2022-07-10T03:57:34;12.90;99.90
8896;DHT22;4484;48.928;10.066;2022-07-10T04:00:21;12.90;99.90
8896;DHT22;4484;48.928;10.066;2022-07-10T04:02:57;13.00;99.90
8896;DHT22;4484;48.928;10.066;2022-07-10T04:05:25;13.00;99.90
8896;DHT22;4484;48.928;10.066;2022-07-10T04:07:53;13.00;99.90
8896;DHT22;4484;48.928;10.066;2022-07-10T04:10:20;13.00;99.90
8896;DHT22;4484;48.928;10.066;2022-07-10T04:12:47;13.10;99.90
8896;DHT22;4484;48.928;10.066;2022-07-10T04:15:15;13.10;99.90
8896;DHT22;4484;48.928;10.066;2022-07-10T04:17:42;13.10;99.90
8896;DHT22;4484;48.928;10.066;2022-07-10T04:20:10;13.10;99.90
8896;DHT22;4484;48.928;10.066;2022-07-10T04:22:37;13.10;99.90
8896;DHT22;4484;48.928;10.066;2022-07-10T04:25:05;13.10;99.90
8896;DHT22;4484;48.928;10.066;2022-07-10T04:27:32;13.10;99.90
8896;DHT22;4484;48.928;10.066;2022-07-10T04:29:59;13.10;99.90
8896;DHT22;4484;48.928;10.066;2022-07-10T04:32:26;13.10;99.90
8896;DHT22;4484;48.928;10.066;2022-07-10T04:34:55;13.10;99.90
8896;DHT22;4484;48.928;10.066;2022-07-10T04:37:23;13.20;99.90
8896;DHT22;4484;48.928;10.066;2022-07-10T04:39:50;13.20;99.90
8896;DHT22;4484;48.928;10.066;2022-07-10T04:42:24;13.30;99.90
8896;DHT22;4484;48.928;10.066;2022-07-10T04:44:51;13.40;99.90
8896;DHT22;4484;48.928;10.066;2022-07-10T04:47:18;13.50;99.90
8896;DHT22;4484;48.928;10.066;2022-07-10T04:49:45;13.60;99.90
8896;DHT22;4484;48.928;10.066;2022-07-10T04:52:12;13.60;99.90
8896;DHT22;4484;48.928;10.066;2022-07-10T04:54:38;13.70;99.90
8896;DHT22;4484;48.928;10.066;2022-07-10T04:57:05;13.70;99.90
8896;DHT22;4484;48.928;10.066;2022-07-10T04:59:32;13.70;99.90
8896;DHT22;4484;48.928;10.066;2022-07-10T05:01:59;13.70;99.90
8896;DHT22;4484;48.928;10.066;2022-07-10T05:04:26;13.70;99.90
8896;DHT22;4484;48.928;10.066;2022-07-10T05:06:53;13.70;99.90
8896;DHT22;4484;48.928;10.066;2022-07-10T05:09:20;13.70;99.90
8896;DHT22;4484;48.928;10.066;2022-07-10T05:11:47;13.80;99.90
8896;DHT22;4484;48.928;10.066;2022-07-10T05:14:14;13.80;99.90
8896;DHT22;4484;48.928;10.066;2022-07-10T05:16:43;13.90;99.90
8896;DHT22;4484;48.928;10.066;2022-07-10T05:19:10;14.00;99.90
8896;DHT22;4484;48.928;10.066;2022-07-10T05:21:37;14.00;99.90
8896;DHT22;4484;48.928;10.066;2022-07-10T05:24:04;14.10;99.90
8896;DHT22;4484;48.928;10.066;2022-07-10T05:26:31;14.00;99.90
8896;DHT22;4484;48.928;10.066;2022-07-10T05:28:58;14.00;99.90
8896;DHT22;4484;48.928;10.066;2022-07-10T05:31:25;14.00;99.90
8896;DHT22;4484;48.928;10.066;2022-07-10T05:33:52;14.00;99.90
8896;DHT22;4484;48.928;10.066;2022-07-10T05:36:19;14.00;99.90
8896;DHT22;4484;48.928;10.066;2022-07-10T05:38:46;14.00;99.90
8896;DHT22;4484;48.928;10.066;2022-07-10T05:41:13;14.10;99.90
8896;DHT22;4484;48.928;10.066;2022-07-10T05:43:40;14.10;99.90
8896;DHT22;4484;48.928;10.066;2022-07-10T05:46:07;14.10;99.90
8896;DHT22;4484;48.928;10.066;2022-07-10T05:48:34;14.20;99.90
8896;DHT22;4484;48.928;10.066;2022-07-10T05:51:01;14.30;99.90
8896;DHT22;4484;48.928;10.066;2022-07-10T05:53:48;14.40;99.90
8896;DHT22;4484;48.928;10.066;2022-07-10T05:56:15;14.50;99.90
8896;DHT22;4484;48.928;10.066;2022-07-10T05:58:42;14.60;99.90
8896;DHT22;4484;48.928;10.066;2022-07-10T06:01:09;14.70;99.90
8896;DHT22;4484;48.928;10.066;2022-07-10T06:03:36;14.80;99.90
8896;DHT22;4484;48.928;10.066;2022-07-10T06:06:03;14.80;99.90
8896;DHT22;4484;48.928;10.066;2022-07-10T06:08:30;14.90;99.90
8896;DHT22;4484;48.928;10.066;2022-07-10T06:10:57;14.90;99.90
8896;DHT22;4484;48.928;10.066;2022-07-10T06:13:23;14.90;99.90
8896;DHT22;4484;48.928;10.066;2022-07-10T06:15:50;14.90;99.90
8896;DHT22;4484;48.928;10.066;2022-07-10T06:18:17;14.80;99.90
8896;DHT22;4484;48.928;10.066;2022-07-10T06:20:44;14.80;99.90
8896;DHT22;4484;48.928;10.066;2022-07-10T06:23:11;14.90;99.90
8896;DHT22;4484;48.928;10.066;2022-07-10T06:25:38;14.90;99.90
8896;DHT22;4484;48.928;10.066;2022-07-10T06:28:05;15.00;99.90
8896;DHT22;4484;48.928;10.066;2022-07-10T06:30:32;15.00;99.90
8896;DHT22;4484;48.928;10.066;2022-07-10T06:32:59;15.00;99.90
8896;DHT22;4484;48.928;10.066;2022-07-10T06:35:26;15.10;99.90
8896;DHT22;4484;48.928;10.066;2022-07-10T06:37:52;15.20;99.90
8896;DHT22;4484;48.928;10.066;2022-07-10T06:40:20;15.40;99.90
8896;DHT22;4484;48.928;10.066;2022-07-10T06:42:47;15.60;99.90
8896;DHT22;4484;48.928;10.066;2022-07-10T06:45:18;15.60;99.90
8896;DHT22;4484;48.928;10.066;2022-07-10T06:47:45;15.70;99.90
8896;DHT22;4484;48.928;10.066;2022-07-10T06:50:29;15.80;99.90
8896;DHT22;4484;48.928;10.066;2022-07-10T06:52:58;15.70;99.90
8896;DHT22;4484;48.928;10.066;2022-07-10T06:55:26;15.70;99.90
8896;DHT22;4484;48.928;10.066;2022-07-10T06:57:55;15.70;99.90
8896;DHT22;4484;48.928;10.066;2022-07-10T07:00:22;15.70;99.90
8896;DHT22;4484;48.928;10.066;2022-07-10T07:02:49;15.70;99.90
8896;DHT22;4484;48.928;10.066;2022-07-10T07:05:16;15.60;99.90
8896;DHT22;4484;48.928;10.066;2022-07-10T07:07:43;15.60;99.90
8896;DHT22;4484;48.928;10.066;2022-07-10T07:10:10;15.70;99.90
8896;DHT22;4484;48.928;10.066;2022-07-10T07:12:37;15.80;99.90
8896;DHT22;4484;48.928;10.066;2022-07-10T07:15:05;16.00;99.90
8896;DHT22;4484;48.928;10.066;2022-07-10T07:17:38;16.10;99.90
8896;DHT22;4484;48.928;10.066;2022-07-10T07:20:25;16.20;99.90
8896;DHT22;4484;48.928;10.066;2022-07-10T07:23:10;16.40;99.90
8896;DHT22;4484;48.928;10.066;2022-07-10T07:25:41;16.50;99.90
8896;DHT22;4484;48.928;10.066;2022-07-10T07:28:17;16.60;99.90
8896;DHT22;4484;48.928;10.066;2022-07-10T07:30:47;16.50;99.90
8896;DHT22;4484;48.928;10.066;2022-07-10T07:33:15;16.60;99.90
8896;DHT22;4484;48.928;10.066;2022-07-10T07:35:42;16.70;99.90
8896;DHT22;4484;48.928;10.066;2022-07-10T07:38:09;16.70;99.90
8896;DHT22;4484;48.928;10.066;2022-07-10T07:40:37;16.70;99.90
8896;DHT22;4484;48.928;10.066;2022-07-10T07:43:04;16.70;99.90
8896;DHT22;4484;48.928;10.066;2022-07-10T07:45:32;16.70;99.90
8896;DHT22;4484;48.928;10.066;2022-07-10T07:47:59;16.70;99.90
8896;DHT22;4484;48.928;10.066;2022-07-10T07:50:29;16.90;99.90
8896;DHT22;4484;48.928;10.066;2022-07-10T07:52:56;16.90;99.90
8896;DHT22;4484;48.928;10.066;2022-07-10T07:55:23;17.10;99.90
8896;DHT22;4484;48.928;10.066;2022-07-10T07:57:55;17.20;99.90
8896;DHT22;4484;48.928;10.066;2022-07-10T08:00:26;17.30;99.90
8896;DHT22;4484;48.928;10.066;2022-07-10T08:02:54;17.40;99.90
8896;DHT22;4484;48.928;10.066;2022-07-10T08:05:22;17.50;99.90
8896;DHT22;4484;48.928;10.066;2022-07-10T08:07:59;17.50;99.90
8896;DHT22;4484;48.928;10.066;2022-07-10T08:10:31;17.70;99.90
8896;DHT22;4484;48.928;10.066;2022-07-10T08:12:58;17.80;99.90
8896;DHT22;4484;48.928;10.066;2022-07-10T08:15:25;17.90;99.90
8896;DHT22;4484;48.928;10.066;2022-07-10T08:17:55;17.90;99.90
8896;DHT22;4484;48.928;10.066;2022-07-10T08:20:23;17.90;99.90
8896;DHT22;4484;48.928;10.066;2022-07-10T08:22:51;17.80;99.90
8896;DHT22;4484;48.928;10.066;2022-07-10T08:25:27;17.90;99.90
8896;DHT22;4484;48.928;10.066;2022-07-10T08:27:54;18.00;99.90
8896;DHT22;4484;48.928;10.066;2022-07-10T08:30:21;18.00;99.90
8896;DHT22;4484;48.928;10.066;2022-07-10T08:32:48;17.90;99.90
8896;DHT22;4484;48.928;10.066;2022-07-10T08:35:15;17.80;99.90
8896;DHT22;4484;48.928;10.066;2022-07-10T08:37:44;17.80;99.90
8896;DHT22;4484;48.928;10.066;2022-07-10T08:40:15;17.80;99.90
8896;DHT22;4484;48.928;10.066;2022-07-10T08:42:43;17.70;99.90
8896;DHT22;4484;48.928;10.066;2022-07-10T08:45:12;17.60;99.90
8896;DHT22;4484;48.928;10.066;2022-07-10T08:47:40;17.50;99.90
8896;DHT22;4484;48.928;10.066;2022-07-10T08:50:21;17.50;99.90
8896;DHT22;4484;48.928;10.066;2022-07-10T08:53:09;17.60;99.90
8896;DHT22;4484;48.928;10.066;2022-07-10T08:55:39;17.70;99.90
8896;DHT22;4484;48.928;10.066;2022-07-10T08:58:08;17.70;99.90
8896;DHT22;4484;48.928;10.066;2022-07-10T09:00:35;17.80;99.90
8896;DHT22;4484;48.928;10.066;2022-07-10T09:03:03;17.90;99.90
8896;DHT22;4484;48.928;10.066;2022-07-10T09:05:30;18.00;99.90
8896;DHT22;4484;48.928;10.066;2022-07-10T09:07:56;18.10;99.90
8896;DHT22;4484;48.928;10.066;2022-07-10T09:10:25;18.10;99.90
8896;DHT22;4484;48.928;10.066;2022-07-10T09:13:00;18.30;99.90
8896;DHT22;4484;48.928;10.066;2022-07-10T09:15:30;18.30;99.90
8896;DHT22;4484;48.928;10.066;2022-07-10T09:18:03;18.40;99.90
8896;DHT22;4484;48.928;10.066;2022-07-10T09:23:16;18.50;99.90
8896;DHT22;4484;48.928;10.066;2022-07-10T09:25:46;18.60;99.90
8896;DHT22;4484;48.928;10.066;2022-07-10T09:28:17;18.60;99.90
8896;DHT22;4484;48.928;10.066;2022-07-10T09:30:50;18.70;99.90
8896;DHT22;4484;48.928;10.066;2022-07-10T09:33:28;18.80;99.90
8896;DHT22;4484;48.928;10.066;2022-07-10T09:36:05;19.00;99.90
8896;DHT22;4484;48.928;10.066;2022-07-10T09:41:16;20.60;99.90
8896;DHT22;4484;48.928;10.066;2022-07-10T09:46:15;20.50;99.90
8896;DHT22;4484;48.928;10.066;2022-07-10T09:48:42;20.50;99.90
8896;DHT22;4484;48.928;10.066;2022-07-10T09:51:10;20.60;99.90
8896;DHT22;4484;48.928;10.066;2022-07-10T09:53:43;20.60;99.90
8896;DHT22;4484;48.928;10.066;2022-07-10T09:56:12;20.70;99.90
8896;DHT22;4484;48.928;10.066;2022-07-10T09:58:39;21.10;99.90
8896;DHT22;4484;48.928;10.066;2022-07-10T10:01:08;21.90;99.90
8896;DHT22;4484;48.928;10.066;2022-07-10T10:03:36;22.60;99.80
8896;DHT22;4484;48.928;10.066;2022-07-10T10:06:16;23.40;98.60
8896;DHT22;4484;48.928;10.066;2022-07-10T10:11:26;23.50;90.70
8896;DHT22;4484;48.928;10.066;2022-07-10T10:13:53;23.30;91.50
8896;DHT22;4484;48.928;10.066;2022-07-10T10:16:21;23.10;91.40
8896;DHT22;4484;48.928;10.066;2022-07-10T10:18:50;23.20;93.70
8896;DHT22;4484;48.928;10.066;2022-07-10T10:21:37;23.20;90.10
8896;DHT22;4484;48.928;10.066;2022-07-10T10:24:04;23.10;88.40
8896;DHT22;4484;48.928;10.066;2022-07-10T10:26:33;22.90;89.10
8896;DHT22;4484;48.928;10.066;2022-07-10T10:29:01;22.50;88.30
8896;DHT22;4484;48.928;10.066;2022-07-10T10:31:30;22.40;90.40
8896;DHT22;4484;48.928;10.066;2022-07-10T10:33:58;22.10;90.40
8896;DHT22;4484;48.928;10.066;2022-07-10T10:39:10;23.10;92.80
8896;DHT22;4484;48.928;10.066;2022-07-10T10:41:41;23.40;87.60
8896;DHT22;4484;48.928;10.066;2022-07-10T10:49:51;22.50;86.30
8896;DHT22;4484;48.928;10.066;2022-07-10T10:52:21;22.50;90.20
8896;DHT22;4484;48.928;10.066;2022-07-10T11:00:08;22.70;87.80
8896;DHT22;4484;48.928;10.066;2022-07-10T11:02:37;22.60;87.50
8896;DHT22;4484;48.928;10.066;2022-07-10T11:10:30;23.10;88.10
8896;DHT22;4484;48.928;10.066;2022-07-10T11:13:09;23.10;87.20
8896;DHT22;4484;48.928;10.066;2022-07-10T11:15:39;23.10;83.20
8896;DHT22;4484;48.928;10.066;2022-07-10T11:18:11;23.40;88.10
8896;DHT22;4484;48.928;10.066;2022-07-10T11:20:40;23.90;90.00
8896;DHT22;4484;48.928;10.066;2022-07-10T11:31:04;26.20;78.60
8896;DHT22;4484;48.928;10.066;2022-07-10T11:33:42;26.20;77.20
8896;DHT22;4484;48.928;10.066;2022-07-10T11:36:13;25.90;69.30
8896;DHT22;4484;48.928;10.066;2022-07-10T11:38:42;25.20;69.10
8896;DHT22;4484;48.928;10.066;2022-07-10T11:41:17;25.00;71.00
8896;DHT22;4484;48.928;10.066;2022-07-10T11:46:15;24.50;71.60
8896;DHT22;4484;48.928;10.066;2022-07-10T11:48:44;25.00;79.10
8896;DHT22;4484;48.928;10.066;2022-07-10T11:51:30;25.40;72.10
8896;DHT22;4484;48.928;10.066;2022-07-10T11:54:08;25.20;70.60
8896;DHT22;4484;48.928;10.066;2022-07-10T11:56:39;25.20;74.20
8896;DHT22;4484;48.928;10.066;2022-07-10T11:59:12;25.80;77.80
8896;DHT22;4484;48.928;10.066;2022-07-10T12:01:46;26.30;75.10
8896;DHT22;4484;48.928;10.066;2022-07-10T12:04:15;26.60;73.30
8896;DHT22;4484;48.928;10.066;2022-07-10T12:06:45;26.20;68.50
8896;DHT22;4484;48.928;10.066;2022-07-10T12:09:14;25.70;69.50
8896;DHT22;4484;48.928;10.066;2022-07-10T12:11:42;25.30;71.00
8896;DHT22;4484;48.928;10.066;2022-07-10T12:14:17;25.50;74.50
8896;DHT22;4484;48.928;10.066;2022-07-10T12:16:47;25.50;69.70
8896;DHT22;4484;48.928;10.066;2022-07-10T12:19:16;25.40;69.70
8896;DHT22;4484;48.928;10.066;2022-07-10T12:21:44;25.60;71.90
8896;DHT22;4484;48.928;10.066;2022-07-10T12:24:13;26.10;71.80
8896;DHT22;4484;48.928;10.066;2022-07-10T12:26:41;26.60;71.40
8896;DHT22;4484;48.928;10.066;2022-07-10T12:29:22;27.20;71.70
8896;DHT22;4484;48.928;10.066;2022-07-10T12:31:51;27.70;71.90
8896;DHT22;4484;48.928;10.066;2022-07-10T12:34:18;28.20;68.60
8896;DHT22;4484;48.928;10.066;2022-07-10T12:36:49;28.10;65.70
8896;DHT22;4484;48.928;10.066;2022-07-10T12:39:19;27.60;61.90
8896;DHT22;4484;48.928;10.066;2022-07-10T12:42:03;27.00;62.50
8896;DHT22;4484;48.928;10.066;2022-07-10T12:44:41;26.50;63.00
8896;DHT22;4484;48.928;10.066;2022-07-10T12:47:10;26.00;65.50
8896;DHT22;4484;48.928;10.066;2022-07-10T12:50:03;25.40;65.80
8896;DHT22;4484;48.928;10.066;2022-07-10T12:52:31;24.70;68.80
8896;DHT22;4484;48.928;10.066;2022-07-10T12:57:54;24.20;70.60
8896;DHT22;4484;48.928;10.066;2022-07-10T13:00:22;24.00;70.60
8896;DHT22;4484;48.928;10.066;2022-07-10T13:03:00;24.30;74.90
8896;DHT22;4484;48.928;10.066;2022-07-10T13:05:34;24.80;70.50
8896;DHT22;4484;48.928;10.066;2022-07-10T13:08:09;24.80;69.50
8896;DHT22;4484;48.928;10.066;2022-07-10T13:10:42;24.80;69.30
8896;DHT22;4484;48.928;10.066;2022-07-10T13:13:10;24.60;69.90
8896;DHT22;4484;48.928;10.066;2022-07-10T13:15:37;24.50;70.90
8896;DHT22;4484;48.928;10.066;2022-07-10T13:18:13;24.40;70.00
8896;DHT22;4484;48.928;10.066;2022-07-10T13:20:41;24.90;73.70
8896;DHT22;4484;48.928;10.066;2022-07-10T13:23:07;25.70;70.20
8896;DHT22;4484;48.928;10.066;2022-07-10T13:25:37;26.30;74.20
8896;DHT22;4484;48.928;10.066;2022-07-10T13:28:09;26.60;67.60
8896;DHT22;4484;48.928;10.066;2022-07-10T13:30:37;26.50;67.60
8896;DHT22;4484;48.928;10.066;2022-07-10T13:33:04;26.60;65.30
8896;DHT22;4484;48.928;10.066;2022-07-10T13:35:32;26.60;64.10
8896;DHT22;4484;48.928;10.066;2022-07-10T13:38:01;26.80;63.50
8896;DHT22;4484;48.928;10.066;2022-07-10T13:40:31;26.60;64.20
8896;DHT22;4484;48.928;10.066;2022-07-10T13:42:58;26.40;64.10
8896;DHT22;4484;48.928;10.066;2022-07-10T13:45:26;26.10;65.50
8896;DHT22;4484;48.928;10.066;2022-07-10T13:47:56;26.20;63.70
8896;DHT22;4484;48.928;10.066;2022-07-10T13:50:23;26.70;68.50
8896;DHT22;4484;48.928;10.066;2022-07-10T13:52:52;27.10;70.40
8896;DHT22;4484;48.928;10.066;2022-07-10T13:55:18;27.40;65.40
8896;DHT22;4484;48.928;10.066;2022-07-10T13:57:45;27.50;64.60
8896;DHT22;4484;48.928;10.066;2022-07-10T14:00:12;27.50;63.50
8896;DHT22;4484;48.928;10.066;2022-07-10T14:02:39;27.70;64.40
8896;DHT22;4484;48.928;10.066;2022-07-10T14:05:06;27.60;61.30
8896;DHT22;4484;48.928;10.066;2022-07-10T14:07:34;27.60;62.50
8896;DHT22;4484;48.928;10.066;2022-07-10T14:10:02;27.40;60.20
8896;DHT22;4484;48.928;10.066;2022-07-10T14:12:29;27.40;63.60
8896;DHT22;4484;48.928;10.066;2022-07-10T14:14:57;27.60;65.10
8896;DHT22;4484;48.928;10.066;2022-07-10T14:17:24;27.60;61.20
8896;DHT22;4484;48.928;10.066;2022-07-10T14:19:51;27.50;62.50
8896;DHT22;4484;48.928;10.066;2022-07-10T14:22:18;27.50;62.50
8896;DHT22;4484;48.928;10.066;2022-07-10T14:24:46;27.00;60.50
8896;DHT22;4484;48.928;10.066;2022-07-10T14:27:12;26.50;61.60
8896;DHT22;4484;48.928;10.066;2022-07-10T14:29:40;26.40;65.00
8896;DHT22;4484;48.928;10.066;2022-07-10T14:32:07;26.60;65.30
8896;DHT22;4484;48.928;10.066;2022-07-10T14:34:34;26.90;63.50
8896;DHT22;4484;48.928;10.066;2022-07-10T14:37:01;27.10;63.80
8896;DHT22;4484;48.928;10.066;2022-07-10T14:39:28;27.20;64.50
8896;DHT22;4484;48.928;10.066;2022-07-10T14:41:55;27.50;64.40
8896;DHT22;4484;48.928;10.066;2022-07-10T14:44:22;27.40;59.10
8896;DHT22;4484;48.928;10.066;2022-07-10T14:46:49;27.00;58.70
8896;DHT22;4484;48.928;10.066;2022-07-10T14:49:17;26.70;56.70
8896;DHT22;4484;48.928;10.066;2022-07-10T14:51:44;26.20;59.60
8896;DHT22;4484;48.928;10.066;2022-07-10T14:54:11;26.00;63.70
8896;DHT22;4484;48.928;10.066;2022-07-10T14:56:40;25.90;61.90
8896;DHT22;4484;48.928;10.066;2022-07-10T14:59:09;25.80;62.40
8896;DHT22;4484;48.928;10.066;2022-07-10T15:01:42;25.60;63.00
8896;DHT22;4484;48.928;10.066;2022-07-10T15:04:09;25.60;64.50
8896;DHT22;4484;48.928;10.066;2022-07-10T15:06:36;25.60;65.20
8896;DHT22;4484;48.928;10.066;2022-07-10T15:09:03;25.60;64.40
8896;DHT22;4484;48.928;10.066;2022-07-10T15:11:31;25.70;64.30
8896;DHT22;4484;48.928;10.066;2022-07-10T15:14:00;25.80;65.20
8896;DHT22;4484;48.928;10.066;2022-07-10T15:16:28;25.60;61.10
8896;DHT22;4484;48.928;10.066;2022-07-10T15:18:56;25.40;61.00
8896;DHT22;4484;48.928;10.066;2022-07-10T15:21:23;25.20;60.50
8896;DHT22;4484;48.928;10.066;2022-07-10T15:23:50;24.50;59.70
8896;DHT22;4484;48.928;10.066;2022-07-10T15:26:17;24.10;63.00
8896;DHT22;4484;48.928;10.066;2022-07-10T15:28:44;24.00;66.50
8896;DHT22;4484;48.928;10.066;2022-07-10T15:31:11;24.10;64.70
8896;DHT22;4484;48.928;10.066;2022-07-10T15:33:40;24.30;67.20
8896;DHT22;4484;48.928;10.066;2022-07-10T15:36:12;24.60;68.40
8896;DHT22;4484;48.928;10.066;2022-07-10T15:38:40;24.80;66.40
8896;DHT22;4484;48.928;10.066;2022-07-10T15:41:08;24.90;64.60
8896;DHT22;4484;48.928;10.066;2022-07-10T15:43:35;24.70;60.10
8896;DHT22;4484;48.928;10.066;2022-07-10T15:46:02;24.60;63.50
8896;DHT22;4484;48.928;10.066;2022-07-10T15:48:29;24.60;65.10
8896;DHT22;4484;48.928;10.066;2022-07-10T15:50:56;24.60;67.40
8896;DHT22;4484;48.928;10.066;2022-07-10T15:53:23;24.60;65.40
8896;DHT22;4484;48.928;10.066;2022-07-10T15:55:50;24.50;64.90
8896;DHT22;4484;48.928;10.066;2022-07-10T15:58:17;24.40;65.30
8896;DHT22;4484;48.928;10.066;2022-07-10T16:00:43;24.30;66.00
8896;DHT22;4484;48.928;10.066;2022-07-10T16:03:10;24.10;64.20
8896;DHT22;4484;48.928;10.066;2022-07-10T16:05:38;23.90;63.50
8896;DHT22;4484;48.928;10.066;2022-07-10T16:08:05;23.90;66.90
8896;DHT22;4484;48.928;10.066;2022-07-10T16:10:33;23.90;66.20
8896;DHT22;4484;48.928;10.066;2022-07-10T16:13:00;23.90;67.10
8896;DHT22;4484;48.928;10.066;2022-07-10T16:15:26;23.90;67.70
8896;DHT22;4484;48.928;10.066;2022-07-10T16:17:53;23.90;66.60
8896;DHT22;4484;48.928;10.066;2022-07-10T16:20:20;23.90;67.30
8896;DHT22;4484;48.928;10.066;2022-07-10T16:22:47;23.80;66.60
8896;DHT22;4484;48.928;10.066;2022-07-10T16:25:14;23.80;67.20
8896;DHT22;4484;48.928;10.066;2022-07-10T16:27:59;23.70;67.80
8896;DHT22;4484;48.928;10.066;2022-07-10T16:30:27;23.50;65.60
8896;DHT22;4484;48.928;10.066;2022-07-10T16:32:53;23.20;65.20
8896;DHT22;4484;48.928;10.066;2022-07-10T16:35:26;22.90;67.00
8896;DHT22;4484;48.928;10.066;2022-07-10T16:37:53;22.60;67.90